Map

Track Data

SID SEASON NUMBER BASIN SUBBASIN NAME ISO_TIME NATURE LAT LON WMO_WIND WMO_PRES WMO_AGENCY TRACK_TYPE DIST2LAND LANDFALL IFLAG USA_AGENCY USA_ATCF_ID USA_LAT USA_LON USA_RECORD USA_STATUS USA_WIND USA_PRES USA_SSHS USA_R34_NE USA_R34_SE USA_R34_SW USA_R34_NW USA_R50_NE USA_R50_SE USA_R50_SW USA_R50_NW USA_R64_NE USA_R64_SE USA_R64_SW USA_R64_NW USA_POCI USA_ROCI USA_RMW USA_EYE TOKYO_LAT TOKYO_LON TOKYO_GRADE TOKYO_WIND TOKYO_PRES TOKYO_R50_DIR TOKYO_R50_LONG TOKYO_R50_SHORT TOKYO_R30_DIR TOKYO_R30_LONG TOKYO_R30_SHORT TOKYO_LAND CMA_LAT CMA_LON CMA_CAT CMA_WIND CMA_PRES HKO_LAT HKO_LON HKO_CAT HKO_WIND HKO_PRES NEWDELHI_LAT NEWDELHI_LON NEWDELHI_GRADE NEWDELHI_WIND NEWDELHI_PRES NEWDELHI_CI NEWDELHI_DP NEWDELHI_POCI REUNION_LAT REUNION_LON REUNION_TYPE REUNION_WIND REUNION_PRES REUNION_TNUM REUNION_CI REUNION_RMW REUNION_R34_NE REUNION_R34_SE REUNION_R34_SW REUNION_R34_NW REUNION_R50_NE REUNION_R50_SE REUNION_R50_SW REUNION_R50_NW REUNION_R64_NE REUNION_R64_SE REUNION_R64_SW REUNION_R64_NW BOM_LAT BOM_LON BOM_TYPE BOM_WIND BOM_PRES BOM_TNUM BOM_CI BOM_RMW BOM_R34_NE BOM_R34_SE BOM_R34_SW BOM_R34_NW BOM_R50_NE BOM_R50_SE BOM_R50_SW BOM_R50_NW BOM_R64_NE BOM_R64_SE BOM_R64_SW BOM_R64_NW BOM_ROCI BOM_POCI BOM_EYE BOM_POS_METHOD BOM_PRES_METHOD NADI_LAT NADI_LON NADI_CAT NADI_WIND NADI_PRES WELLINGTON_LAT WELLINGTON_LON WELLINGTON_WIND WELLINGTON_PRES DS824_LAT DS824_LON DS824_STAGE DS824_WIND DS824_PRES TD9636_LAT TD9636_LON TD9636_STAGE TD9636_WIND TD9636_PRES TD9635_LAT TD9635_LON TD9635_WIND TD9635_PRES TD9635_ROCI NEUMANN_LAT NEUMANN_LON NEUMANN_CLASS NEUMANN_WIND NEUMANN_PRES MLC_LAT MLC_LON MLC_CLASS MLC_WIND MLC_PRES USA_GUST BOM_GUST BOM_GUST_PER REUNION_GUST REUNION_GUST_PER USA_SEAHGT USA_SEARAD_NE USA_SEARAD_SE USA_SEARAD_SW USA_SEARAD_NW STORM_SPEED STORM_DIR
1997193N09248 1997 49 EP MM ENRIQUE 1997-07-12 06:00:00 TS 8.60000 -111.700 25 1009 hurdat_epa main 1400 1400 O_____________ hurdat_epa EP071997 8.60000 -111.700 TD 25 1009 -1 18 278
1997193N09248 1997 49 EP MM ENRIQUE 1997-07-12 09:00:00 TS 8.73310 -112.602 main 1445 1442 P_____________ EP071997 8.73310 -112.602 TD 27 1008 -1 17 280
1997193N09248 1997 49 EP MM ENRIQUE 1997-07-12 12:00:00 TS 8.90000 -113.400 30 1007 hurdat_epa main 1479 1479 O_____________ hurdat_epa EP071997 8.90000 -113.400 TD 30 1007 -1 15 286
1997193N09248 1997 49 EP MM ENRIQUE 1997-07-12 15:00:00 TS 9.12715 -114.030 main 1503 1502 P_____________ EP071997 9.12715 -114.030 TD 35 1006 0 13 293
1997193N09248 1997 49 EP MM ENRIQUE 1997-07-12 18:00:00 TS 9.40000 -114.600 40 1005 hurdat_epa main 1521 1521 O_____________ hurdat_epa EP071997 9.40000 -114.600 TS 40 1005 0 13 295
1997193N09248 1997 49 EP MM ENRIQUE 1997-07-12 21:00:00 TS 9.67733 -115.228 main 1543 1543 P_____________ EP071997 9.67733 -115.228 TS 42 1002 0 14 295
1997193N09248 1997 49 EP MM ENRIQUE 1997-07-13 00:00:00 TS 10.0000 -115.900 45 1000 hurdat_epa main 1572 1564 O_____________ hurdat_epa EP071997 10.0000 -115.900 TS 45 1000 0 16 297
1997193N09248 1997 49 EP MM ENRIQUE 1997-07-13 03:00:00 TS 10.3849 -116.635 main 1564 1559 P_____________ EP071997 10.3849 -116.635 TS 50 997 0 17 298
1997193N09248 1997 49 EP MM ENRIQUE 1997-07-13 06:00:00 TS 10.8000 -117.400 55 994 hurdat_epa main 1565 1561 O_____________ hurdat_epa EP071997 10.8000 -117.400 TS 55 994 0 17 299
1997193N09248 1997 49 EP MM ENRIQUE 1997-07-13 09:00:00 TS 11.1999 -118.158 main 1571 1565 P_____________ EP071997 11.1999 -118.158 TS 60 990 0 17 299
1997193N09248 1997 49 EP MM ENRIQUE 1997-07-13 12:00:00 TS 11.6000 -118.900 65 987 hurdat_epa main 1577 1574 O_____________ hurdat_epa EP071997 11.6000 -118.900 HU 65 987 1 17 299
1997193N09248 1997 49 EP MM ENRIQUE 1997-07-13 15:00:00 TS 12.0074 -119.630 main 1587 1585 P_____________ EP071997 12.0074 -119.630 HU 72 983 1 16 300
1997193N09248 1997 49 EP MM ENRIQUE 1997-07-13 18:00:00 TS 12.4000 -120.300 80 979 hurdat_epa main 1602 1601 O_____________ hurdat_epa EP071997 12.4000 -120.300 HU 80 979 1 14 302
1997193N09248 1997 49 EP MM ENRIQUE 1997-07-13 21:00:00 TS 12.7573 -120.880 main 1613 1613 P_____________ EP071997 12.7573 -120.880 HU 85 974 2 13 303
1997193N09248 1997 49 EP MM ENRIQUE 1997-07-14 00:00:00 TS 13.1000 -121.400 90 970 hurdat_epa main 1623 1618 O_____________ hurdat_epa EP071997 13.1000 -121.400 HU 90 970 2 12 304
1997193N09248 1997 49 EP MM ENRIQUE 1997-07-14 03:00:00 TS 13.4424 -121.908 main 1629 1620 P_____________ EP071997 13.4424 -121.908 HU 90 970 2 12 306
1997193N09248 1997 49 EP MM ENRIQUE 1997-07-14 06:00:00 TS 13.8000 -122.400 90 970 hurdat_epa main 1628 1623 O_____________ hurdat_epa EP071997 13.8000 -122.400 HU 90 970 2 12 308
1997193N09248 1997 49 EP MM ENRIQUE 1997-07-14 09:00:00 TS 14.1848 -122.893 main 1629 1626 P_____________ EP071997 14.1849 -122.893 HU 92 967 2 13 310
1997193N09248 1997 49 EP MM ENRIQUE 1997-07-14 12:00:00 TS 14.6000 -123.400 95 965 hurdat_epa main 1634 1633 O_____________ hurdat_epa EP071997 14.6000 -123.400 HU 95 965 2 13 310
1997193N09248 1997 49 EP MM ENRIQUE 1997-07-14 15:00:00 TS 15.0349 -123.943 main 1640 1640 P_____________ EP071997 15.0349 -123.943 HU 97 962 3 14 310
1997193N09248 1997 49 EP MM ENRIQUE 1997-07-14 18:00:00 TS 15.5000 -124.500 100 960 hurdat_epa main 1650 1650 O_____________ hurdat_epa EP071997 15.5000 -124.500 HU 100 960 3 14 312
1997193N09248 1997 49 EP MM ENRIQUE 1997-07-14 21:00:00 TS 15.9998 -125.043 main 1655 1654 P_____________ EP071997 15.9998 -125.043 HU 95 962 2 15 313
1997193N09248 1997 49 EP MM ENRIQUE 1997-07-15 00:00:00 TS 16.5000 -125.600 90 965 hurdat_epa main 1659 1654 O_____________ hurdat_epa EP071997 16.5000 -125.600 HU 90 965 2 15 311
1997193N09248 1997 49 EP MM ENRIQUE 1997-07-15 03:00:00 TS 16.9499 -126.193 main 1666 1658 P_____________ EP071997 16.9499 -126.193 HU 85 970 2 15 308
1997193N09248 1997 49 EP MM ENRIQUE 1997-07-15 06:00:00 TS 17.4000 -126.800 80 975 hurdat_epa main 1669 1667 O_____________ hurdat_epa EP071997 17.4000 -126.800 HU 80 975 1 15 310
1997193N09248 1997 49 EP MM ENRIQUE 1997-07-15 09:00:00 TS 17.8997 -127.385 main 1675 1675 P_____________ EP071997 17.8997 -127.385 HU 75 977 1 15 311
1997193N09248 1997 49 EP MM ENRIQUE 1997-07-15 12:00:00 TS 18.4000 -128.000 70 980 hurdat_epa main 1685 1685 O_____________ hurdat_epa EP071997 18.4000 -128.000 HU 70 980 1 16 308
1997193N09248 1997 49 EP MM ENRIQUE 1997-07-15 15:00:00 TS 18.8724 -128.685 main 1707 1707 P_____________ EP071997 18.8724 -128.685 HU 65 987 1 16 304
1997193N09248 1997 49 EP MM ENRIQUE 1997-07-15 18:00:00 TS 19.3000 -129.400 60 994 hurdat_epa main 1739 1739 O_____________ hurdat_epa EP071997 19.3000 -129.400 TS 60 994 0 16 301
1997193N09248 1997 49 EP MM ENRIQUE 1997-07-15 21:00:00 TS 19.6724 -130.115 main 1775 1775 P_____________ EP071997 19.6724 -130.115 TS 52 997 0 15 298
1997193N09248 1997 49 EP MM ENRIQUE 1997-07-16 00:00:00 TS 20.0000 -130.800 45 1000 hurdat_epa main 1819 1819 O_____________ hurdat_epa EP071997 20.0000 -130.800 TS 45 1000 0 14 297
1997193N09248 1997 49 EP MM ENRIQUE 1997-07-16 03:00:00 TS 20.2844 -131.393 main 1856 1856 P_____________ EP071997 20.2844 -131.393 TS 40 1002 0 13 298
1997193N09248 1997 49 EP MM ENRIQUE 1997-07-16 06:00:00 TS 20.6000 -132.000 35 1004 hurdat_epa main 1895 1895 O_____________ hurdat_epa EP071997 20.6000 -132.000 TS 35 1004 0 15 299
1997193N09248 1997 49 EP MM ENRIQUE 1997-07-16 09:00:00 TS 21.0207 -132.802 main 1920 1916 P_____________ EP071997 21.0207 -132.802 TS 32 1006 -1 17 303
1997193N09248 1997 49 EP MM ENRIQUE 1997-07-16 12:00:00 TS 21.5000 -133.500 30 1008 hurdat_epa main 1920 1896 O_____________ hurdat_epa EP071997 21.5000 -133.500 TD 30 1008 -1 14 315
1997193N09248 1997 49 EP MM ENRIQUE 1997-07-16 15:00:00 TS 21.9969 -133.858 main 1903 1867 P_____________ EP071997 21.9969 -133.858 TD 27 1008 -1 11 335
1997193N09248 1997 49 EP MM ENRIQUE 1997-07-16 18:00:00 TS 22.5000 -134.000 25 1009 hurdat_epa main 1867 O_____________ hurdat_epa EP071997 22.5000 -134.000 TD 25 1009 -1 10 345

About IBTrACS Database

This database is a web-friendly format of International Best Track Archive for Climate Stewardship (IBTrACS), a global best track data archive curated by NOAA dating back to 1842.

Updated: 2021-12-03